createdAt,value
2022-08-22T00:02:21.269Z,2.60
2022-08-22T00:02:43.111Z,3.37
2022-08-22T00:02:45.363Z,8.03
2022-08-22T00:04:53.469Z,3.00
2022-08-22T00:07:24.809Z,2.80
2022-08-22T00:09:57.371Z,3.03
2022-08-22T00:12:27.581Z,3.13
2022-08-22T00:15:00.083Z,3.03
2022-08-22T00:17:35.873Z,2.73
2022-08-22T00:20:07.235Z,2.70
2022-08-22T00:22:40.154Z,2.73
2022-08-22T00:25:24.828Z,2.80
2022-08-22T00:27:55.262Z,2.53
2022-08-22T00:30:24.718Z,2.43
2022-08-22T00:32:55.122Z,2.53
2022-08-22T00:35:24.413Z,2.30
2022-08-22T00:37:57.447Z,2.70
2022-08-22T00:40:30.727Z,2.80
2022-08-22T00:43:08.439Z,2.70
2022-08-22T00:45:53.754Z,2.10
2022-08-22T00:48:50.935Z,2.37
2022-08-22T00:51:33.349Z,2.00
2022-08-22T00:54:06.809Z,1.77
2022-08-22T00:56:45.182Z,2.33
2022-08-22T00:59:24.264Z,1.90
2022-08-22T01:01:54.405Z,1.80
2022-08-22T01:04:36.746Z,2.30
2022-08-22T01:07:12.130Z,2.07
2022-08-22T01:09:47.911Z,1.50
2022-08-22T01:12:20.364Z,2.00
2022-08-22T01:14:50.685Z,1.97
2022-08-22T01:17:36.291Z,1.70
2022-08-22T01:20:22.322Z,2.07
2022-08-22T01:23:05.898Z,1.73
2022-08-22T01:25:45.779Z,1.80
2022-08-22T01:28:35.899Z,2.20
2022-08-22T01:31:26.420Z,2.17
2022-08-22T01:34:06.730Z,1.70
2022-08-22T01:37:01.701Z,2.03
2022-08-22T01:39:43.160Z,1.83
2022-08-22T01:42:30.080Z,2.10
2022-08-22T01:45:18.395Z,1.90
2022-08-22T01:47:49.137Z,2.00
2022-08-22T01:50:26.023Z,1.83
2022-08-22T01:52:59.833Z,2.27
2022-08-22T01:55:33.873Z,1.80
2022-08-22T01:58:03.536Z,1.87
2022-08-22T02:00:34.834Z,2.00
2022-08-22T02:03:14.499Z,1.93
2022-08-22T02:06:00.011Z,1.83
2022-08-22T02:08:30.989Z,2.10
2022-08-22T02:11:03.443Z,2.00
2022-08-22T02:13:46.049Z,2.47
2022-08-22T02:16:17.805Z,2.00
2022-08-22T02:18:57.297Z,1.90
2022-08-22T02:21:30.293Z,2.20
2022-08-22T02:23:58.692Z,1.87
2022-08-22T02:26:27.878Z,1.80
2022-08-22T02:28:58.554Z,1.80
2022-08-22T02:31:34.880Z,2.00
2022-08-22T02:34:04.222Z,2.00
2022-08-22T02:36:35.366Z,2.07
2022-08-22T02:39:06.739Z,2.00
2022-08-22T02:41:37.962Z,1.70
2022-08-22T02:44:14.298Z,1.87
2022-08-22T02:46:44.554Z,2.00
2022-08-22T02:49:14.007Z,1.93
2022-08-22T02:51:48.346Z,2.00
2022-08-22T02:54:20.469Z,2.20
2022-08-22T02:56:51.515Z,2.30
2022-08-22T02:59:25.679Z,2.60
2022-08-22T03:01:53.439Z,2.50
2022-08-22T03:04:44.679Z,2.70
2022-08-22T03:07:15.840Z,2.70
2022-08-22T03:09:46.924Z,2.47
2022-08-22T03:12:19.225Z,2.57
2022-08-22T03:14:50.565Z,2.30
2022-08-22T03:17:20.382Z,1.87
2022-08-22T03:19:51.962Z,2.20
2022-08-22T03:22:23.598Z,2.40
2022-08-22T03:25:06.833Z,2.50
2022-08-22T03:27:36.759Z,2.50
2022-08-22T03:30:07.049Z,2.30
2022-08-22T03:32:54.563Z,2.20
2022-08-22T03:35:28.208Z,2.40
2022-08-22T03:38:08.872Z,2.13
2022-08-22T03:40:46.837Z,2.20
2022-08-22T03:43:34.353Z,1.90
2022-08-22T03:46:34.825Z,1.80
2022-08-22T03:49:20.831Z,2.17
2022-08-22T03:51:59.315Z,1.90
2022-08-22T03:54:42.573Z,2.00
2022-08-22T03:57:24.142Z,2.53
2022-08-22T03:59:59.789Z,2.87
2022-08-22T04:02:54.960Z,2.80
2022-08-22T04:05:38.324Z,2.87
2022-08-22T04:08:26.318Z,4.27
2022-08-22T04:11:15.647Z,4.37
2022-08-22T04:14:10.001Z,4.23
2022-08-22T04:16:55.040Z,4.10
2022-08-22T04:19:31.443Z,3.90
2022-08-22T04:22:09.587Z,3.80
2022-08-22T04:24:49.250Z,3.40
2022-08-22T04:27:22.463Z,3.67
2022-08-22T04:29:56.171Z,3.43
2022-08-22T04:32:27.654Z,3.17
2022-08-22T04:34:56.967Z,3.27
2022-08-22T04:37:29.786Z,3.20
2022-08-22T04:40:00.897Z,3.50
2022-08-22T04:42:33.120Z,3.37
2022-08-22T04:45:04.453Z,3.20
2022-08-22T04:47:34.651Z,3.30
2022-08-22T04:50:04.394Z,3.17
2022-08-22T04:52:36.565Z,2.97
2022-08-22T04:55:07.385Z,3.00
2022-08-22T04:57:42.495Z,2.90
2022-08-22T05:00:12.330Z,3.00
2022-08-22T05:02:42.521Z,3.00
2022-08-22T05:05:17.902Z,2.90
2022-08-22T05:07:47.305Z,2.90
2022-08-22T05:10:17.815Z,2.93
2022-08-22T05:12:49.488Z,2.97
2022-08-22T05:15:23.070Z,2.67
2022-08-22T05:17:52.182Z,2.30
2022-08-22T05:20:21.991Z,2.50
2022-08-22T05:22:51.269Z,2.60
2022-08-22T05:25:21.570Z,2.20
2022-08-22T05:27:51.229Z,2.40
2022-08-22T05:30:26.435Z,2.23
2022-08-22T05:32:55.659Z,2.20
2022-08-22T05:35:27.641Z,2.23
2022-08-22T05:37:55.890Z,2.33
2022-08-22T05:40:26.098Z,2.30
2022-08-22T05:42:54.532Z,3.13
2022-08-22T05:45:22.302Z,2.40
2022-08-22T05:47:52.657Z,2.40
2022-08-22T05:50:23.690Z,2.27
2022-08-22T05:53:00.141Z,2.77
2022-08-22T05:55:29.606Z,2.73
2022-08-22T05:58:11.755Z,2.60
2022-08-22T06:00:41.489Z,2.23
2022-08-22T06:03:16.150Z,2.80
2022-08-22T06:05:46.695Z,2.80
2022-08-22T06:08:18.361Z,2.63
2022-08-22T06:10:48.133Z,2.80
2022-08-22T06:13:17.814Z,2.83
2022-08-22T06:15:54.987Z,2.97
2022-08-22T06:18:25.155Z,3.33
2022-08-22T06:20:54.597Z,2.97
2022-08-22T06:23:24.465Z,3.27
2022-08-22T06:25:53.899Z,2.90
2022-08-22T06:28:23.777Z,2.60
2022-08-22T06:30:52.933Z,3.23
2022-08-22T06:33:23.315Z,3.13
2022-08-22T06:36:11.245Z,3.10
2022-08-22T06:38:52.870Z,3.00
2022-08-22T06:41:22.970Z,3.30
2022-08-22T06:43:52.672Z,3.00
2022-08-22T06:46:20.465Z,3.57
2022-08-22T06:48:48.762Z,3.27
2022-08-22T06:51:18.811Z,3.60
2022-08-22T06:53:48.232Z,3.50
2022-08-22T06:56:21.265Z,3.60
2022-08-22T06:58:49.645Z,3.50
2022-08-22T07:01:19.058Z,3.67
2022-08-22T07:03:47.686Z,3.30
2022-08-22T07:06:17.949Z,3.50
2022-08-22T07:08:45.561Z,3.70
2022-08-22T07:11:16.457Z,3.50
2022-08-22T07:13:45.218Z,3.60
2022-08-22T07:16:12.683Z,3.37
2022-08-22T07:18:47.925Z,3.27
2022-08-22T07:21:26.123Z,2.77
2022-08-22T07:23:54.885Z,2.93
2022-08-22T07:26:27.001Z,2.70
2022-08-22T07:28:58.532Z,3.10
2022-08-22T07:31:30.808Z,2.97
2022-08-22T07:34:03.722Z,3.20
2022-08-22T07:36:39.229Z,3.13
2022-08-22T07:39:14.950Z,4.23
2022-08-22T07:41:50.709Z,3.60
2022-08-22T07:44:19.724Z,4.13
2022-08-22T07:46:53.191Z,3.50
2022-08-22T07:49:23.177Z,4.17
2022-08-22T07:51:53.902Z,3.47
2022-08-22T07:54:26.520Z,3.27
2022-08-22T07:56:58.517Z,3.63
2022-08-22T07:59:28.126Z,3.53
2022-08-22T08:01:56.910Z,3.70
2022-08-22T08:04:26.217Z,3.67
2022-08-22T08:06:56.699Z,3.77
2022-08-22T08:09:25.024Z,3.40
2022-08-22T08:11:53.951Z,3.30
2022-08-22T08:14:25.201Z,3.23
2022-08-22T08:16:55.343Z,3.50
2022-08-22T08:19:24.810Z,3.27
2022-08-22T08:21:54.365Z,3.30
2022-08-22T08:24:25.564Z,3.30
2022-08-22T08:27:12.535Z,3.47
2022-08-22T08:29:41.416Z,2.50
2022-08-22T08:32:11.148Z,3.10
2022-08-22T08:34:39.905Z,3.10
2022-08-22T08:37:12.975Z,3.43
2022-08-22T08:39:44.338Z,3.40
2022-08-22T08:42:23.105Z,3.07
2022-08-22T08:45:13.011Z,3.00
2022-08-22T08:47:46.602Z,3.47
2022-08-22T08:50:36.523Z,3.10
2022-08-22T08:53:15.555Z,2.70
2022-08-22T08:55:51.142Z,2.50
2022-08-22T08:58:34.037Z,2.90
2022-08-22T09:01:07.793Z,2.37
2022-08-22T09:03:46.993Z,2.43
2022-08-22T09:06:28.406Z,2.10
2022-08-22T09:09:08.789Z,1.47
2022-08-22T09:11:50.475Z,2.20
2022-08-22T09:14:31.276Z,2.00
2022-08-22T09:17:08.332Z,1.63
2022-08-22T09:19:49.524Z,1.70
2022-08-22T09:22:49.900Z,2.10
2022-08-22T09:25:23.593Z,1.60
2022-08-22T09:27:56.693Z,1.23
2022-08-22T09:30:28.660Z,1.60
2022-08-22T09:33:15.687Z,1.83
2022-08-22T09:35:48.999Z,1.80
2022-08-22T09:38:25.734Z,1.70
2022-08-22T09:40:56.321Z,2.07
2022-08-22T09:43:35.549Z,1.80
2022-08-22T09:46:12.139Z,2.87
2022-08-22T09:48:49.200Z,2.80
2022-08-22T09:51:31.533Z,2.00
2022-08-22T09:54:18.855Z,1.53
2022-08-22T09:56:53.313Z,2.20
2022-08-22T09:59:23.670Z,2.30
2022-08-22T10:01:54.161Z,2.43
2022-08-22T10:04:39.367Z,2.67
2022-08-22T10:07:20.413Z,3.00
2022-08-22T10:09:55.057Z,2.23
2022-08-22T10:12:27.284Z,2.50
2022-08-22T10:15:06.830Z,2.70
2022-08-22T10:17:36.883Z,2.20
2022-08-22T10:20:16.199Z,2.00
2022-08-22T10:22:47.325Z,2.13
2022-08-22T10:25:22.590Z,2.07
2022-08-22T10:27:55.649Z,2.00
2022-08-22T10:30:26.794Z,2.57
2022-08-22T10:33:01.364Z,2.13
2022-08-22T10:35:33.941Z,1.90
2022-08-22T10:38:04.782Z,2.30
2022-08-22T10:40:36.139Z,2.20
2022-08-22T10:43:09.385Z,2.50
2022-08-22T10:45:40.153Z,2.20
2022-08-22T10:48:20.192Z,2.23
2022-08-22T10:50:49.043Z,1.50
2022-08-22T10:53:38.929Z,2.10
2022-08-22T10:56:11.482Z,1.37
2022-08-22T10:58:41.864Z,1.40
2022-08-22T11:01:37.877Z,1.50
2022-08-22T11:04:06.411Z,1.40
2022-08-22T11:06:38.523Z,1.23
2022-08-22T11:09:12.993Z,1.37
2022-08-22T11:11:43.709Z,1.40
2022-08-22T11:14:19.711Z,1.67
2022-08-22T11:16:56.158Z,1.47
2022-08-22T11:19:28.918Z,1.50
2022-08-22T11:22:02.058Z,1.40
2022-08-22T11:24:56.477Z,1.70
2022-08-22T11:27:38.236Z,2.10
2022-08-22T11:30:10.740Z,2.10
2022-08-22T11:33:06.537Z,2.30
2022-08-22T11:35:39.018Z,2.00
2022-08-22T11:38:11.113Z,2.17
2022-08-22T11:40:42.061Z,2.20
2022-08-22T11:43:18.160Z,1.93
2022-08-22T11:45:47.811Z,1.90
2022-08-22T11:48:20.939Z,2.27
2022-08-22T11:50:50.116Z,2.00
2022-08-22T11:53:28.578Z,2.43
2022-08-22T11:56:01.545Z,2.03
2022-08-22T11:58:41.962Z,2.23
2022-08-22T12:01:17.471Z,2.00
2022-08-22T12:03:55.786Z,2.20
2022-08-22T12:06:35.109Z,2.47
2022-08-22T12:09:09.321Z,2.17
2022-08-22T12:11:39.954Z,2.43
2022-08-22T12:14:16.610Z,1.90
2022-08-22T12:16:48.319Z,2.37
2022-08-22T12:19:23.059Z,1.70
2022-08-22T12:22:00.519Z,2.30
2022-08-22T12:24:43.743Z,1.90
2022-08-22T12:27:28.720Z,2.10
2022-08-22T12:30:04.490Z,1.83
2022-08-22T12:32:43.973Z,1.70
2022-08-22T12:35:29.886Z,1.90
2022-08-22T12:38:02.811Z,1.67
2022-08-22T12:40:43.678Z,1.83
2022-08-22T12:43:18.851Z,1.80
2022-08-22T12:46:01.800Z,1.80
2022-08-22T12:48:37.082Z,1.83
2022-08-22T12:51:23.335Z,1.30
2022-08-22T12:54:04.557Z,1.67
2022-08-22T12:56:36.776Z,1.40
2022-08-22T12:59:17.857Z,1.77
2022-08-22T13:01:46.203Z,1.60
2022-08-22T13:04:29.700Z,1.60
2022-08-22T13:07:09.038Z,1.50
2022-08-22T13:09:38.091Z,1.73
2022-08-22T13:12:15.582Z,1.70
2022-08-22T13:14:49.660Z,1.63
2022-08-22T13:17:25.078Z,1.53
2022-08-22T13:20:07.499Z,1.80
2022-08-22T13:22:39.349Z,1.60
2022-08-22T13:25:08.480Z,1.80
2022-08-22T13:27:51.254Z,1.67
2022-08-22T13:30:20.119Z,1.80
2022-08-22T13:32:48.789Z,1.50
2022-08-22T13:35:23.841Z,2.00
2022-08-22T13:37:56.315Z,1.73
2022-08-22T13:40:25.183Z,2.03
2022-08-22T13:42:54.845Z,1.67
2022-08-22T13:45:24.016Z,2.10
2022-08-22T13:47:55.426Z,2.20
2022-08-22T13:50:24.141Z,2.00
2022-08-22T13:52:55.447Z,2.17
2022-08-22T13:55:29.650Z,2.03
2022-08-22T13:58:00.819Z,2.10
2022-08-22T14:00:56.659Z,2.30
2022-08-22T14:03:30.272Z,1.87
2022-08-22T14:06:06.245Z,1.80
2022-08-22T14:08:47.838Z,2.20
2022-08-22T14:11:21.525Z,2.10
2022-08-22T14:13:50.066Z,1.97
2022-08-22T14:16:21.838Z,2.10
2022-08-22T14:18:50.568Z,2.20
2022-08-22T14:21:40.920Z,2.03
2022-08-22T14:24:16.461Z,2.27
2022-08-22T14:26:59.215Z,2.00
2022-08-22T14:29:50.246Z,2.07
2022-08-22T14:32:35.306Z,2.03
2022-08-22T14:35:05.277Z,1.90
2022-08-22T14:37:40.156Z,1.90
2022-08-22T14:40:09.842Z,2.30
2022-08-22T14:42:44.321Z,2.00
2022-08-22T14:45:16.981Z,2.17
2022-08-22T14:47:54.924Z,1.93
2022-08-22T14:50:39.729Z,2.17
2022-08-22T14:53:11.387Z,1.90
2022-08-22T14:55:40.091Z,2.27
2022-08-22T14:58:15.591Z,2.40
2022-08-22T15:00:45.142Z,1.87
2022-08-22T15:03:21.590Z,2.70
2022-08-22T15:05:50.891Z,2.07
2022-08-22T15:08:27.615Z,2.03
2022-08-22T15:11:09.710Z,2.00
2022-08-22T15:13:43.028Z,2.30
2022-08-22T15:16:15.645Z,2.27
2022-08-22T15:18:51.536Z,2.00
2022-08-22T15:21:24.563Z,2.17
2022-08-22T15:23:53.893Z,2.17
2022-08-22T15:26:27.241Z,2.07
2022-08-22T15:29:04.360Z,2.20
2022-08-22T15:31:32.290Z,2.13
2022-08-22T15:34:07.506Z,2.07
2022-08-22T15:36:36.998Z,2.43
2022-08-22T15:39:23.031Z,2.37
2022-08-22T15:41:51.345Z,2.43
2022-08-22T15:44:32.514Z,2.10
2022-08-22T15:47:11.601Z,2.07
2022-08-22T15:49:53.573Z,2.17
2022-08-22T15:52:23.374Z,2.10
2022-08-22T15:55:20.660Z,2.00
2022-08-22T15:58:05.765Z,1.70
2022-08-22T16:00:36.722Z,1.63
2022-08-22T16:03:12.521Z,2.10
2022-08-22T16:05:45.683Z,2.00
2022-08-22T16:08:14.358Z,2.00
2022-08-22T16:10:44.261Z,1.90
2022-08-22T16:13:16.546Z,1.77
2022-08-22T16:15:57.979Z,2.00
2022-08-22T16:18:44.214Z,2.07
2022-08-22T16:21:13.273Z,1.87
2022-08-22T16:24:00.703Z,1.80
2022-08-22T16:26:37.942Z,1.77
2022-08-22T16:29:07.877Z,1.63
2022-08-22T16:31:38.725Z,2.00
2022-08-22T16:34:23.391Z,2.00
2022-08-22T16:36:52.270Z,1.73
2022-08-22T16:39:33.385Z,1.87
2022-08-22T16:42:15.802Z,1.70
2022-08-22T16:44:45.885Z,1.77
2022-08-22T16:47:18.733Z,1.90
2022-08-22T16:49:56.740Z,2.17
2022-08-22T16:52:41.605Z,1.97
2022-08-22T16:55:30.216Z,2.10
2022-08-22T16:58:06.436Z,2.20
2022-08-22T17:00:39.849Z,1.87
2022-08-22T17:03:11.411Z,1.80
2022-08-22T17:05:45.935Z,2.40
2022-08-22T17:08:22.959Z,2.30
2022-08-22T17:10:58.494Z,2.10
2022-08-22T17:13:32.857Z,2.27
2022-08-22T17:16:09.914Z,2.40
2022-08-22T17:18:46.867Z,2.30
2022-08-22T17:21:18.249Z,2.17
2022-08-22T17:23:51.003Z,2.07
2022-08-22T17:26:20.061Z,1.80
2022-08-22T17:28:52.851Z,1.93
2022-08-22T17:31:28.156Z,2.00
2022-08-22T17:34:07.020Z,1.83
2022-08-22T17:36:45.302Z,1.73
2022-08-22T17:39:19.987Z,1.77
2022-08-22T17:41:51.706Z,1.57
2022-08-22T17:44:24.744Z,1.80
2022-08-22T17:46:55.167Z,1.50
2022-08-22T17:49:31.166Z,1.40
2022-08-22T17:52:00.618Z,1.60
2022-08-22T17:54:32.744Z,1.70
2022-08-22T17:57:05.251Z,1.37
2022-08-22T17:59:35.630Z,1.60
2022-08-22T18:02:09.728Z,1.40
2022-08-22T18:04:46.859Z,1.43
2022-08-22T18:07:29.968Z,1.40
2022-08-22T18:09:59.983Z,1.70
2022-08-22T18:12:34.348Z,2.37
2022-08-22T18:15:05.748Z,1.73
2022-08-22T18:17:35.650Z,1.70
2022-08-22T18:20:07.955Z,1.63
2022-08-22T18:22:37.125Z,1.47
2022-08-22T18:25:07.658Z,1.70
2022-08-22T18:27:37.247Z,1.63
2022-08-22T18:30:14.795Z,1.60
2022-08-22T18:32:48.124Z,1.90
2022-08-22T18:35:17.838Z,1.77
2022-08-22T18:37:50.790Z,1.77
2022-08-22T18:40:27.554Z,1.80
2022-08-22T18:42:57.942Z,1.60
2022-08-22T18:45:44.454Z,1.93
2022-08-22T18:48:19.938Z,1.80
2022-08-22T18:50:49.369Z,2.10
2022-08-22T18:53:31.691Z,1.60
2022-08-22T18:56:02.465Z,2.03
2022-08-22T18:58:42.133Z,1.80
2022-08-22T19:01:24.179Z,1.93
2022-08-22T19:04:17.385Z,2.07
2022-08-22T19:06:55.065Z,1.93
2022-08-22T19:09:33.371Z,2.00
2022-08-22T19:12:04.125Z,1.90
2022-08-22T19:14:41.451Z,1.60
2022-08-22T19:17:26.853Z,1.80
2022-08-22T19:20:16.456Z,2.03
2022-08-22T19:22:45.509Z,2.57
2022-08-22T19:25:20.072Z,1.93
2022-08-22T19:28:08.591Z,2.13
2022-08-22T19:30:38.223Z,2.17
2022-08-22T19:33:07.497Z,2.07
2022-08-22T19:35:43.243Z,2.00
2022-08-22T19:38:12.863Z,1.80
2022-08-22T19:40:51.263Z,2.10
2022-08-22T19:43:27.226Z,2.23
2022-08-22T19:45:55.805Z,2.10
2022-08-22T19:48:27.554Z,2.10
2022-08-22T19:51:09.567Z,2.03
2022-08-22T19:53:40.859Z,2.13
2022-08-22T19:56:13.526Z,2.30
2022-08-22T19:58:52.211Z,2.10
2022-08-22T20:01:31.392Z,2.47
2022-08-22T20:04:00.493Z,2.47
2022-08-22T20:06:43.624Z,2.20
2022-08-22T20:09:19.153Z,2.10
2022-08-22T20:11:48.485Z,2.30
2022-08-22T20:14:25.028Z,2.13
2022-08-22T20:17:03.250Z,2.03
2022-08-22T20:19:37.266Z,2.27
2022-08-22T20:22:05.820Z,2.60
2022-08-22T20:24:40.103Z,2.20
2022-08-22T20:27:14.500Z,2.20
2022-08-22T20:29:49.069Z,2.20
2022-08-22T20:32:19.189Z,2.00
2022-08-22T20:34:47.424Z,2.40
2022-08-22T20:37:32.304Z,2.10
2022-08-22T20:40:33.491Z,2.20
2022-08-22T20:43:01.423Z,2.50
2022-08-22T20:45:29.597Z,2.27
2022-08-22T20:47:58.339Z,2.13
2022-08-22T20:50:27.775Z,2.50
2022-08-22T20:53:09.522Z,2.67
2022-08-22T20:55:38.819Z,2.43
2022-08-22T20:58:07.124Z,2.50
2022-08-22T21:00:36.242Z,2.33
2022-08-22T21:03:06.486Z,2.17
2022-08-22T21:05:35.394Z,2.23
2022-08-22T21:08:05.448Z,2.53
2022-08-22T21:10:51.195Z,2.50
2022-08-22T21:13:22.200Z,2.40
2022-08-22T21:15:50.697Z,2.40
2022-08-22T21:18:25.229Z,2.50
2022-08-22T21:20:52.889Z,2.67
2022-08-22T21:23:20.449Z,3.23
2022-08-22T21:25:49.621Z,2.70
2022-08-22T21:28:27.422Z,4.00
2022-08-22T21:30:54.901Z,2.80
2022-08-22T21:33:25.238Z,2.60
2022-08-22T21:35:56.966Z,2.70
2022-08-22T21:38:24.500Z,2.77
2022-08-22T21:40:52.521Z,2.77
2022-08-22T21:43:31.873Z,2.60
2022-08-22T21:45:59.283Z,2.43
2022-08-22T21:48:38.393Z,2.70
2022-08-22T21:51:22.719Z,2.43
2022-08-22T21:54:03.704Z,2.60
2022-08-22T21:56:37.756Z,2.60
2022-08-22T21:59:25.036Z,2.70
2022-08-22T22:01:52.897Z,3.00
2022-08-22T22:04:23.105Z,2.70
2022-08-22T22:06:50.511Z,2.50
2022-08-22T22:09:17.878Z,3.23
2022-08-22T22:11:45.280Z,2.60
2022-08-22T22:14:12.688Z,2.97
2022-08-22T22:16:41.410Z,2.67
2022-08-22T22:19:09.903Z,2.67
2022-08-22T22:21:38.584Z,2.53
2022-08-22T22:24:06.191Z,3.03
2022-08-22T22:26:33.685Z,2.93
2022-08-22T22:29:01.127Z,2.80
2022-08-22T22:31:28.519Z,3.00
2022-08-22T22:33:57.377Z,3.23
2022-08-22T22:36:26.306Z,3.00
2022-08-22T22:38:53.853Z,3.30
2022-08-22T22:41:25.190Z,3.10
2022-08-22T22:43:53.161Z,2.83
2022-08-22T22:46:20.971Z,3.33
2022-08-22T22:48:48.779Z,3.10
2022-08-22T22:51:17.501Z,3.00
2022-08-22T22:53:45.587Z,3.30
2022-08-22T22:56:14.041Z,2.97
2022-08-22T22:58:43.583Z,3.57
2022-08-22T23:01:12.710Z,3.77
2022-08-22T23:03:40.578Z,3.20
2022-08-22T23:06:11.285Z,3.57
2022-08-22T23:08:40.221Z,3.30
2022-08-22T23:11:10.174Z,3.80
2022-08-22T23:13:39.726Z,3.73
2022-08-22T23:16:10.187Z,3.63
2022-08-22T23:18:37.579Z,3.93
2022-08-22T23:21:11.842Z,3.97
2022-08-22T23:23:40.574Z,3.67
2022-08-22T23:26:08.399Z,3.63
2022-08-22T23:28:35.854Z,3.50
2022-08-22T23:31:10.664Z,3.80
2022-08-22T23:33:38.381Z,3.70
2022-08-22T23:36:13.922Z,3.20
2022-08-22T23:38:42.760Z,3.70
2022-08-22T23:41:10.795Z,3.20
2022-08-22T23:43:41.302Z,3.47
2022-08-22T23:46:08.689Z,3.67
2022-08-22T23:48:36.143Z,3.97
2022-08-22T23:51:03.679Z,3.93
2022-08-22T23:53:31.059Z,3.87
2022-08-22T23:56:09.099Z,3.53
2022-08-22T23:58:47.458Z,4.23
